Time;durP1;ratioP1;P1;durP2;ratioP2;P2;SDS_P1;SDS_P2;PMS_P1;PMS_P2;Temp;Humidity;BMP_temperature;BMP_pressure;BME280_temperature;BME280_humidity;BME280_pressure;Samples;Min_cycle;Max_cycle;Signal;HPM_P1;HPM_P2
2022/08/31 00:05:05;;;;;;;951.13;864.53;;;21.40;99.30;;;;;;4986104;28;20220;-84
2022/08/31 00:07:33;;;;;;;965.83;878.67;;;21.40;99.30;;;;;;4992491;28;20223;-84
2022/08/31 00:10:02;;;;;;;948.00;861.45;;;21.40;99.40;;;;;;5000269;28;20282;-85
2022/08/31 00:12:30;;;;;;;956.78;869.90;;;21.40;99.50;;;;;;4992546;28;20200;-84
2022/08/31 00:14:57;;;;;;;966.92;880.08;;;21.40;99.50;;;;;;4992313;28;20205;-84
2022/08/31 00:17:24;;;;;;;961.70;874.60;;;21.40;99.60;;;;;;4992533;28;20773;-84
2022/08/31 00:19:50;;;;;;;959.22;872.53;;;21.30;99.60;;;;;;4993001;28;20204;-84
2022/08/31 00:22:17;;;;;;;975.03;887.72;;;21.30;99.70;;;;;;4992405;28;20209;-84
2022/08/31 00:24:44;;;;;;;951.13;864.65;;;21.30;99.80;;;;;;4994317;28;20750;-84
2022/08/31 00:27:14;;;;;;;947.72;861.22;;;21.30;99.80;;;;;;4993581;28;20196;-84
2022/08/31 00:29:42;;;;;;;955.22;868.63;;;21.30;99.90;;;;;;4994823;28;20201;-81
2022/08/31 00:32:09;;;;;;;963.10;876.03;;;21.30;99.90;;;;;;4988395;28;20202;-84
2022/08/31 00:34:35;;;;;;;947.30;860.72;;;21.30;99.90;;;;;;4992473;28;20193;-84
2022/08/31 00:37:03;;;;;;;962.78;875.80;;;21.20;99.90;;;;;;4993399;28;20209;-83
2022/08/31 00:39:30;;;;;;;967.40;880.33;;;21.20;99.90;;;;;;4994003;28;20668;-84
2022/08/31 00:41:56;;;;;;;960.67;873.78;;;21.20;99.90;;;;;;4985590;28;20213;-84
2022/08/31 00:44:23;;;;;;;948.10;861.53;;;21.20;99.90;;;;;;4993519;28;20700;-83
2022/08/31 00:46:52;;;;;;;956.40;869.90;;;21.20;99.90;;;;;;4993027;28;20205;-83
2022/08/31 00:49:21;;;;;;;945.25;858.85;;;21.20;99.90;;;;;;4991092;28;20208;-83
2022/08/31 00:51:53;;;;;;;947.78;861.28;;;21.20;99.90;;;;;;4991150;28;20201;-84
2022/08/31 00:54:32;;;;;;;955.30;868.55;;;21.10;99.90;;;;;;5000978;28;20196;-83
2022/08/31 00:57:00;;;;;;;946.13;859.63;;;21.10;99.90;;;;;;4994358;28;20200;-84
2022/08/31 00:59:28;;;;;;;935.88;849.72;;;21.10;99.90;;;;;;4994610;28;20625;-82
2022/08/31 01:01:56;;;;;;;957.90;871.00;;;21.10;99.90;;;;;;4992797;28;20194;-83
2022/08/31 01:04:23;;;;;;;947.33;860.95;;;21.10;99.90;;;;;;4994118;28;20597;-83
2022/08/31 01:06:51;;;;;;;944.60;858.10;;;21.10;99.90;;;;;;4991527;28;20220;-83
2022/08/31 01:09:21;;;;;;;939.35;853.45;;;21.10;99.90;;;;;;4994932;28;20212;-83
2022/08/31 01:11:47;;;;;;;926.65;840.92;;;21.10;99.90;;;;;;4993707;28;20201;-84
2022/08/31 01:14:15;;;;;;;940.78;854.42;;;21.10;99.90;;;;;;4991771;28;20194;-83
2022/08/31 01:16:46;;;;;;;939.03;852.50;;;21.00;99.90;;;;;;4990196;28;20208;-83
2022/08/31 01:19:28;;;;;;;932.42;846.58;;;21.00;99.90;;;;;;4994049;28;20207;-82
2022/08/31 01:22:01;;;;;;;930.22;844.47;;;21.00;99.90;;;;;;4988105;28;20219;-83
2022/08/31 01:24:31;;;;;;;946.60;860.15;;;21.00;99.90;;;;;;4994064;28;20719;-83
2022/08/31 01:27:02;;;;;;;930.42;844.33;;;21.00;99.90;;;;;;4991941;28;20279;-84
2022/08/31 01:29:29;;;;;;;935.67;849.50;;;21.00;99.90;;;;;;4989414;28;20197;-83
2022/08/31 01:31:56;;;;;;;954.47;867.80;;;21.00;99.90;;;;;;4987905;28;20208;-83
2022/08/31 01:34:23;;;;;;;947.03;860.42;;;21.00;99.90;;;;;;4993636;28;20209;-82
2022/08/31 01:36:51;;;;;;;951.13;864.65;;;20.90;99.90;;;;;;4990791;28;20201;-83
2022/08/31 01:39:19;;;;;;;957.47;870.70;;;20.90;99.90;;;;;;4994195;28;20220;-83
2022/08/31 01:41:47;;;;;;;957.40;870.35;;;20.90;99.90;;;;;;4990927;28;20211;-83
2022/08/31 01:44:17;;;;;;;937.95;851.63;;;20.90;99.90;;;;;;4990839;28;20213;-83
2022/08/31 01:46:44;;;;;;;933.20;847.15;;;20.90;99.90;;;;;;4997423;28;20652;-84
2022/08/31 01:49:11;;;;;;;946.75;860.22;;;20.90;99.90;;;;;;4993209;28;20212;-84
2022/08/31 01:51:38;;;;;;;937.35;851.00;;;20.90;99.90;;;;;;4986671;28;20644;-82
2022/08/31 01:54:06;;;;;;;951.50;864.95;;;20.80;99.90;;;;;;4993460;28;20267;-82
2022/08/31 01:56:36;;;;;;;931.53;845.33;;;20.80;99.90;;;;;;4978240;28;20201;-82
2022/08/31 01:59:06;;;;;;;939.30;852.97;;;20.80;99.90;;;;;;4992892;28;20199;-82
2022/08/31 02:01:35;;;;;;;940.75;854.30;;;20.80;99.90;;;;;;4982375;28;20356;-82
2022/08/31 02:04:03;;;;;;;942.20;855.53;;;20.80;99.90;;;;;;4983130;28;20220;-82
2022/08/31 02:06:30;;;;;;;941.40;854.92;;;20.80;99.90;;;;;;4986277;28;20251;-82
2022/08/31 02:08:57;;;;;;;940.03;854.05;;;20.80;99.90;;;;;;4984759;28;20201;-82
2022/08/31 02:11:24;;;;;;;934.22;848.00;;;20.80;99.90;;;;;;4992277;28;20201;-82
2022/08/31 02:13:50;;;;;;;934.38;848.05;;;20.70;99.90;;;;;;4980939;28;20645;-82
2022/08/31 02:16:19;;;;;;;935.08;848.88;;;20.70;99.90;;;;;;4985929;28;20201;-81
2022/08/31 02:18:45;;;;;;;927.13;841.13;;;20.70;99.90;;;;;;4981568;28;20202;-82
2022/08/31 02:21:12;;;;;;;937.63;851.22;;;20.70;99.90;;;;;;4985088;28;20650;-82
2022/08/31 02:23:39;;;;;;;927.58;841.17;;;20.70;99.90;;;;;;4991759;28;20201;-82
2022/08/31 02:26:06;;;;;;;924.55;838.70;;;20.70;99.90;;;;;;4992385;28;20222;-82
2022/08/31 02:28:33;;;;;;;926.00;840.22;;;20.70;99.90;;;;;;4988522;28;20349;-82
2022/08/31 02:31:00;;;;;;;927.60;841.53;;;20.70;99.90;;;;;;5002877;28;20200;-81
2022/08/31 02:33:28;;;;;;;934.08;848.13;;;20.70;99.90;;;;;;4999431;28;20280;-82
2022/08/31 02:35:55;;;;;;;935.15;849.10;;;20.60;99.90;;;;;;4992463;28;20197;-82
2022/08/31 02:38:22;;;;;;;925.95;840.08;;;20.60;99.90;;;;;;4990040;28;20199;-82
2022/08/31 02:40:49;;;;;;;933.78;847.67;;;20.60;99.90;;;;;;4991005;28;20237;-81
2022/08/31 02:43:16;;;;;;;938.78;852.40;;;20.60;99.90;;;;;;4991050;28;20197;-82
2022/08/31 02:45:43;;;;;;;930.55;844.63;;;20.60;99.90;;;;;;4991220;28;20315;-82
2022/08/31 02:48:11;;;;;;;937.83;851.65;;;20.60;99.90;;;;;;4994736;28;20197;-82
2022/08/31 02:50:41;;;;;;;918.50;832.60;;;20.60;99.90;;;;;;4990922;28;20199;-82
2022/08/31 02:53:08;;;;;;;930.00;843.83;;;20.50;99.90;;;;;;5007166;28;20192;-82
2022/08/31 02:55:36;;;;;;;929.90;843.72;;;20.50;99.90;;;;;;5008241;28;20189;-79
2022/08/31 02:58:04;;;;;;;920.22;834.42;;;20.50;99.90;;;;;;4987660;28;20203;-81
2022/08/31 03:00:31;;;;;;;923.25;837.35;;;20.50;99.90;;;;;;4996564;28;20216;-82
2022/08/31 03:02:57;;;;;;;910.80;825.42;;;20.50;99.90;;;;;;4986302;28;20299;-83
2022/08/31 03:05:25;;;;;;;916.20;830.58;;;20.50;99.90;;;;;;4986660;28;20596;-83
2022/08/31 03:07:53;;;;;;;924.30;838.40;;;20.50;99.90;;;;;;4995653;28;20223;-83
2022/08/31 03:10:22;;;;;;;930.95;844.63;;;20.50;99.90;;;;;;4993040;28;20199;-83
2022/08/31 03:12:50;;;;;;;924.63;838.83;;;20.50;99.90;;;;;;4994860;28;20687;-83
2022/08/31 03:15:19;;;;;;;922.50;836.78;;;20.40;99.90;;;;;;4995476;28;20569;-83
2022/08/31 03:17:47;;;;;;;918.45;832.72;;;20.40;99.90;;;;;;4988681;28;20203;-83
2022/08/31 03:20:15;;;;;;;909.00;823.47;;;20.40;99.90;;;;;;4988855;28;20197;-82
2022/08/31 03:22:42;;;;;;;915.67;830.20;;;20.40;99.90;;;;;;4986587;28;20193;-81
2022/08/31 03:25:10;;;;;;;917.22;831.45;;;20.40;99.90;;;;;;4980053;28;20730;-82
2022/08/31 03:27:38;;;;;;;926.83;840.97;;;20.40;99.90;;;;;;4991712;28;20228;-82
2022/08/31 03:30:08;;;;;;;933.45;847.20;;;20.30;99.90;;;;;;4989153;28;20205;-82
2022/08/31 03:32:35;;;;;;;927.00;841.03;;;20.30;99.90;;;;;;4985262;28;20195;-83
2022/08/31 03:35:03;;;;;;;911.05;825.65;;;20.30;99.90;;;;;;4982442;28;20575;-83
2022/08/31 03:37:30;;;;;;;922.97;837.25;;;20.30;99.90;;;;;;4989555;28;20652;-82
2022/08/31 03:39:57;;;;;;;908.35;822.67;;;20.30;99.90;;;;;;4989462;28;20213;-82
2022/08/31 03:42:26;;;;;;;912.33;826.75;;;20.30;99.90;;;;;;4987623;28;20684;-82
2022/08/31 03:44:53;;;;;;;912.65;827.05;;;20.30;99.90;;;;;;4991808;28;20225;-82
2022/08/31 03:47:20;;;;;;;911.08;825.78;;;20.30;99.90;;;;;;4995346;28;20220;-82
2022/08/31 03:49:47;;;;;;;914.65;829.05;;;20.30;99.90;;;;;;4986828;28;20568;-82
2022/08/31 03:52:14;;;;;;;913.05;827.65;;;20.30;99.90;;;;;;4993933;28;20211;-82
2022/08/31 03:54:42;;;;;;;909.22;823.85;;;20.20;99.90;;;;;;4991889;28;20563;-82
2022/08/31 03:57:09;;;;;;;908.22;822.83;;;20.20;99.90;;;;;;4987627;28;20252;-82
2022/08/31 03:59:37;;;;;;;911.47;825.88;;;20.20;99.90;;;;;;4990825;28;20200;-83
2022/08/31 04:02:04;;;;;;;921.88;836.08;;;20.20;99.90;;;;;;4983645;28;20197;-83
2022/08/31 04:04:31;;;;;;;915.45;829.55;;;20.20;99.90;;;;;;4988396;28;20229;-82
2022/08/31 04:06:57;;;;;;;903.67;818.40;;;20.20;99.90;;;;;;4983995;28;20627;-83
2022/08/31 04:09:24;;;;;;;898.15;813.03;;;20.20;99.90;;;;;;4991701;28;20656;-82
2022/08/31 04:11:51;;;;;;;905.95;820.53;;;20.10;99.90;;;;;;4991587;28;20200;-82
2022/08/31 04:14:18;;;;;;;899.97;814.70;;;20.10;99.90;;;;;;4985041;28;20932;-82
2022/08/31 04:16:46;;;;;;;909.97;824.40;;;20.10;99.90;;;;;;4990535;28;20606;-82
2022/08/31 04:19:14;;;;;;;921.72;835.78;;;20.10;99.90;;;;;;4989904;28;20212;-82
2022/08/31 04:21:42;;;;;;;926.50;840.25;;;20.10;99.90;;;;;;4985442;28;20207;-82
2022/08/31 04:24:10;;;;;;;904.83;819.42;;;20.10;99.90;;;;;;4992119;28;20548;-82
2022/08/31 04:26:39;;;;;;;909.67;824.22;;;20.10;99.90;;;;;;4990248;28;20712;-82
2022/08/31 04:29:07;;;;;;;902.45;816.88;;;20.10;99.90;;;;;;4983731;28;20209;-82
2022/08/31 04:31:35;;;;;;;891.25;806.47;;;20.10;99.90;;;;;;4988473;28;20209;-82
2022/08/31 04:34:03;;;;;;;898.33;813.05;;;20.10;99.90;;;;;;4989137;28;20288;-82
2022/08/31 04:36:30;;;;;;;907.15;821.75;;;20.10;99.90;;;;;;4986430;28;20207;-82
2022/08/31 04:38:59;;;;;;;898.67;813.30;;;20.00;99.90;;;;;;4991054;28;20251;-82
2022/08/31 04:41:29;;;;;;;915.72;830.15;;;20.00;99.90;;;;;;4984371;28;20195;-82
2022/08/31 04:43:58;;;;;;;906.75;821.28;;;20.00;99.90;;;;;;4989562;28;20573;-82
2022/08/31 04:46:26;;;;;;;893.38;808.30;;;20.00;99.90;;;;;;4987061;28;20221;-82
2022/08/31 04:48:53;;;;;;;907.17;821.58;;;20.00;99.90;;;;;;4994519;28;20201;-82
2022/08/31 04:51:24;;;;;;;900.63;815.13;;;20.00;99.90;;;;;;4983225;28;20198;-82
2022/08/31 04:53:51;;;;;;;907.22;821.75;;;20.00;99.90;;;;;;4989706;28;20200;-82
2022/08/31 04:56:26;;;;;;;913.33;827.47;;;20.00;99.90;;;;;;4988846;28;20546;-82
2022/08/31 04:58:57;;;;;;;901.83;816.55;;;20.00;99.90;;;;;;4990014;28;20287;-82
2022/08/31 05:01:26;;;;;;;894.38;809.28;;;19.90;99.90;;;;;;4989945;28;20209;-83
2022/08/31 05:03:53;;;;;;;896.55;811.35;;;19.90;99.90;;;;;;4992221;28;20632;-81
2022/08/31 05:06:23;;;;;;;895.20;809.83;;;19.90;99.90;;;;;;4996435;28;20225;-82
2022/08/31 05:08:53;;;;;;;895.67;810.58;;;19.90;99.90;;;;;;4993061;28;20228;-81
2022/08/31 05:11:21;;;;;;;903.70;818.35;;;19.90;99.90;;;;;;4993295;28;20201;-83
2022/08/31 05:13:49;;;;;;;896.50;811.47;;;19.90;99.90;;;;;;4984832;28;20196;-82
2022/08/31 05:16:16;;;;;;;911.10;825.47;;;19.90;99.90;;;;;;4997741;28;20192;-81
2022/08/31 05:18:45;;;;;;;894.10;809.03;;;19.90;99.90;;;;;;4994377;28;20198;-82
2022/08/31 05:21:13;;;;;;;889.53;804.75;;;19.90;99.90;;;;;;4989317;28;20197;-82
2022/08/31 05:23:43;;;;;;;887.78;802.80;;;19.90;99.90;;;;;;4992822;28;20203;-81
2022/08/31 05:26:15;;;;;;;897.17;811.92;;;19.90;99.90;;;;;;4990789;28;20356;-82
2022/08/31 05:28:42;;;;;;;901.80;816.40;;;19.80;99.90;;;;;;4989201;28;20208;-82
2022/08/31 05:31:08;;;;;;;878.67;794.05;;;19.80;99.90;;;;;;4992971;28;20656;-82
2022/08/31 05:33:35;;;;;;;895.90;810.80;;;19.80;99.90;;;;;;4993184;28;20200;-82
2022/08/31 05:36:03;;;;;;;883.90;799.03;;;19.80;99.90;;;;;;4989310;28;20705;-81
2022/08/31 05:38:30;;;;;;;887.38;802.47;;;19.80;99.90;;;;;;4990518;28;20193;-82
2022/08/31 05:40:58;;;;;;;878.95;794.35;;;19.80;99.90;;;;;;4985148;28;20205;-83
2022/08/31 05:43:25;;;;;;;893.50;808.65;;;19.80;99.90;;;;;;4993232;28;20300;-82
2022/08/31 05:45:53;;;;;;;881.00;796.35;;;19.80;99.90;;;;;;4986093;28;20227;-83
2022/08/31 05:48:20;;;;;;;886.67;801.80;;;19.80;99.90;;;;;;4993237;28;20201;-82
2022/08/31 05:50:47;;;;;;;892.13;807.17;;;19.80;99.90;;;;;;4990389;28;20297;-83
2022/08/31 05:53:14;;;;;;;892.63;807.42;;;19.80;99.90;;;;;;4989848;28;20201;-83
2022/08/31 05:55:41;;;;;;;890.65;805.58;;;19.80;99.90;;;;;;4985464;28;20194;-84
2022/08/31 05:58:10;;;;;;;885.65;800.90;;;19.80;99.90;;;;;;4995359;28;20200;-84
2022/08/31 06:00:38;;;;;;;876.70;792.17;;;19.80;99.90;;;;;;4999430;28;20610;-82
2022/08/31 06:03:05;;;;;;;876.58;792.05;;;19.80;99.90;;;;;;4989062;28;20231;-83
2022/08/31 06:05:32;;;;;;;885.83;800.92;;;19.80;99.90;;;;;;4979537;28;20218;-83
2022/08/31 06:07:58;;;;;;;879.33;794.78;;;19.80;99.90;;;;;;4984043;28;20208;-83
2022/08/31 06:10:25;;;;;;;891.72;806.58;;;19.80;99.90;;;;;;4985034;28;20209;-83
2022/08/31 06:12:52;;;;;;;888.13;803.05;;;19.80;99.90;;;;;;4990491;28;20208;-83
2022/08/31 06:15:20;;;;;;;876.35;791.97;;;19.80;99.90;;;;;;4986400;28;20285;-83
2022/08/31 06:17:47;;;;;;;888.50;803.63;;;19.80;99.90;;;;;;4991197;28;20289;-82
2022/08/31 06:20:16;;;;;;;899.63;814.20;;;19.70;99.90;;;;;;4982158;28;20221;-82
2022/08/31 06:22:45;;;;;;;874.63;790.15;;;19.70;99.90;;;;;;4985148;28;20229;-81
2022/08/31 06:25:18;;;;;;;898.97;814.00;;;19.80;99.90;;;;;;4989146;28;20747;-84
2022/08/31 06:27:49;;;;;;;872.08;787.78;;;19.80;99.90;;;;;;4993554;28;20209;-84
2022/08/31 06:30:20;;;;;;;882.22;797.70;;;19.80;99.90;;;;;;4988767;28;20202;-82
2022/08/31 06:32:48;;;;;;;869.58;785.20;;;19.80;99.90;;;;;;5002599;28;20271;-81
2022/08/31 06:35:15;;;;;;;873.13;788.72;;;19.80;99.90;;;;;;4989882;28;20779;-81
2022/08/31 06:37:42;;;;;;;888.15;803.28;;;19.80;99.90;;;;;;4987301;28;20281;-81
2022/08/31 06:40:09;;;;;;;893.72;808.88;;;19.80;99.90;;;;;;4991110;28;20208;-81
2022/08/31 06:42:36;;;;;;;887.95;803.10;;;19.80;99.90;;;;;;4989994;28;20193;-81
2022/08/31 06:45:03;;;;;;;882.25;797.67;;;19.80;99.90;;;;;;4989695;28;20211;-83
2022/08/31 06:47:31;;;;;;;890.80;805.65;;;19.80;99.90;;;;;;4984424;28;20198;-82
2022/08/31 06:49:59;;;;;;;892.47;807.70;;;19.80;99.90;;;;;;4994157;28;20660;-80
2022/08/31 06:52:26;;;;;;;890.22;805.63;;;19.80;99.90;;;;;;4983183;28;20211;-81
2022/08/31 06:54:53;;;;;;;884.42;799.85;;;19.80;99.90;;;;;;4992735;28;20201;-82
2022/08/31 06:57:19;;;;;;;874.00;789.50;;;19.80;99.90;;;;;;4986923;28;20556;-81
2022/08/31 06:59:46;;;;;;;875.20;790.75;;;19.80;99.90;;;;;;4987811;28;20656;-82
2022/08/31 07:02:13;;;;;;;860.08;776.20;;;19.70;99.90;;;;;;4986654;28;20197;-82
2022/08/31 07:04:40;;;;;;;883.13;798.45;;;19.70;99.90;;;;;;4983904;28;20217;-81
2022/08/31 07:07:10;;;;;;;875.00;790.80;;;19.70;99.90;;;;;;4989312;28;20674;-82
2022/08/31 07:09:38;;;;;;;887.75;803.00;;;19.70;99.90;;;;;;4980277;28;20291;-82
2022/08/31 07:12:06;;;;;;;881.85;797.17;;;19.80;99.90;;;;;;4992513;28;20207;-82
2022/08/31 07:14:33;;;;;;;877.65;793.15;;;19.70;99.90;;;;;;4996413;28;20200;-82
2022/08/31 07:17:02;;;;;;;879.72;795.15;;;19.80;99.90;;;;;;4993098;28;20201;-82
2022/08/31 07:19:29;;;;;;;879.30;794.95;;;19.80;99.90;;;;;;4983474;28;20201;-83
2022/08/31 07:21:58;;;;;;;884.65;800.25;;;19.80;99.90;;;;;;4999343;28;20197;-82
2022/08/31 07:24:29;;;;;;;872.22;787.92;;;19.90;99.90;;;;;;5001973;28;20200;-82
2022/08/31 07:26:59;;;;;;;883.42;798.65;;;19.90;99.90;;;;;;4989682;28;20229;-82
2022/08/31 07:29:29;;;;;;;898.88;813.72;;;20.00;99.90;;;;;;4982209;28;20196;-82
2022/08/31 07:31:56;;;;;;;896.40;811.60;;;20.00;99.90;;;;;;4990767;28;20224;-82
2022/08/31 07:34:25;;;;;;;893.53;808.60;;;20.00;99.90;;;;;;4992437;28;20267;-82
2022/08/31 07:42:25;;;;;;;908.13;822.88;;;20.30;99.90;;;;;;4990748;28;20216;-83
2022/08/31 07:44:53;;;;;;;911.15;825.55;;;20.50;99.90;;;;;;4983456;28;20338;-83
2022/08/31 07:47:21;;;;;;;921.90;836.22;;;20.80;99.90;;;;;;4989618;28;20217;-82
2022/08/31 07:49:51;;;;;;;935.60;849.40;;;21.00;99.90;;;;;;4989735;28;20201;-81
2022/08/31 07:52:22;;;;;;;932.10;846.15;;;21.10;99.90;;;;;;4992129;28;20196;-83
2022/08/31 07:54:51;;;;;;;945.28;858.90;;;21.10;99.90;;;;;;4991625;28;20652;-82
2022/08/31 07:57:20;;;;;;;944.28;857.97;;;21.10;99.90;;;;;;4993300;28;20236;-81
2022/08/31 07:59:53;;;;;;;929.33;843.38;;;21.00;99.90;;;;;;4985533;28;20684;-82
2022/08/31 08:02:20;;;;;;;923.75;838.17;;;21.00;99.90;;;;;;4980894;28;20720;-82
2022/08/31 08:04:49;;;;;;;943.55;857.15;;;20.90;99.90;;;;;;4983449;28;20219;-82
2022/08/31 08:07:17;;;;;;;939.67;853.50;;;20.90;99.90;;;;;;4984408;28;20498;-82
2022/08/31 08:09:44;;;;;;;943.25;856.97;;;20.90;99.90;;;;;;4988461;28;20572;-82
2022/08/31 08:12:12;;;;;;;945.58;859.03;;;20.90;99.90;;;;;;4984544;28;20699;-83
2022/08/31 08:14:39;;;;;;;922.30;836.85;;;20.80;99.90;;;;;;4986073;28;20199;-83
2022/08/31 08:17:07;;;;;;;934.40;848.40;;;20.80;99.90;;;;;;4992568;28;20582;-82
2022/08/31 08:19:34;;;;;;;929.47;843.67;;;20.80;99.90;;;;;;4986884;28;20201;-82
2022/08/31 08:22:02;;;;;;;910.63;825.33;;;20.70;99.90;;;;;;4995378;28;20200;-82
2022/08/31 08:24:30;;;;;;;928.58;842.85;;;20.70;99.90;;;;;;4996552;28;20336;-82
2022/08/31 08:26:57;;;;;;;928.33;842.63;;;20.70;99.90;;;;;;4990466;28;20221;-82
2022/08/31 08:29:25;;;;;;;934.95;849.08;;;20.70;99.90;;;;;;4988812;28;20211;-83
2022/08/31 08:31:52;;;;;;;922.70;837.20;;;20.70;99.90;;;;;;4990883;28;20215;-83
2022/08/31 08:34:20;;;;;;;925.28;839.72;;;20.80;99.90;;;;;;4989286;28;20249;-82
2022/08/31 08:36:48;;;;;;;941.05;854.65;;;20.90;99.90;;;;;;4991757;28;20205;-83
2022/08/31 08:39:16;;;;;;;940.90;854.65;;;21.00;99.90;;;;;;4996156;28;20660;-83
2022/08/31 08:41:45;;;;;;;947.08;860.72;;;21.10;99.90;;;;;;4995406;28;20209;-83
2022/08/31 08:44:14;;;;;;;960.17;873.10;;;21.10;99.90;;;;;;4990780;28;20218;-84
2022/08/31 08:46:48;;;;;;;959.85;873.35;;;21.20;99.90;;;;;;4987835;28;20217;-83
2022/08/31 08:49:20;;;;;;;958.20;871.50;;;21.30;99.90;;;;;;4992065;28;20231;-83
2022/08/31 08:51:51;;;;;;;949.17;862.72;;;21.30;99.90;;;;;;4988776;28;20895;-83
2022/08/31 08:54:26;;;;;;;961.22;874.35;;;21.40;99.90;;;;;;4995576;28;20197;-84
2022/08/31 08:56:53;;;;;;;971.97;885.00;;;21.50;99.90;;;;;;4992461;28;20189;-84
2022/08/31 08:59:19;;;;;;;982.17;894.80;;;21.60;99.90;;;;;;5002799;28;20555;-83
2022/08/31 09:01:51;;;;;;;978.88;891.60;;;21.70;99.90;;;;;;5003762;28;20242;-84
2022/08/31 09:04:31;;;;;;;975.60;888.38;;;21.80;99.70;;;;;;4993134;28;20225;-82
2022/08/31 09:07:12;;;;;;;971.75;884.80;;;21.90;99.70;;;;;;4995566;28;20216;-82
2022/08/31 09:09:45;;;;;;;973.45;886.45;;;21.90;99.40;;;;;;4995920;28;20204;-82
2022/08/31 09:12:30;;;;;;;992.08;904.17;;;22.00;99.60;;;;;;4992197;28;20198;-83
2022/08/31 09:15:17;;;;;;;991.38;903.58;;;22.00;99.50;;;;;;4997701;28;20208;-83
2022/08/31 09:17:54;;;;;;;986.63;899.05;;;22.00;99.60;;;;;;4987215;28;20212;-83
2022/08/31 09:20:21;;;;;;;973.83;886.85;;;22.00;99.30;;;;;;4990719;28;20294;-83
2022/08/31 09:22:50;;;;;;;998.05;910.00;;;22.00;99.50;;;;;;5000500;28;20293;-83
2022/08/31 09:25:19;;;;;;;997.40;909.60;;;22.00;99.80;;;;;;4991829;28;20205;-82
2022/08/31 09:27:55;;;;;;;1001.92;913.85;;;22.00;99.80;;;;;;4986551;28;20221;-83
2022/08/31 09:30:37;;;;;;;999.05;911.17;;;22.00;99.50;;;;;;4997836;28;20199;-82
2022/08/31 09:33:05;;;;;;;983.33;895.90;;;22.00;99.80;;;;;;4991675;28;20199;-84
2022/08/31 09:35:39;;;;;;;1015.65;927.38;;;22.00;99.60;;;;;;4992004;28;20224;-83
2022/08/31 09:38:08;;;;;;;982.20;894.88;;;22.10;99.90;;;;;;4998533;28;20200;-83
2022/08/31 09:40:39;;;;;;;980.50;893.47;;;22.10;99.70;;;;;;4998162;28;20212;-83
2022/08/31 09:43:09;;;;;;;981.33;894.05;;;22.10;99.70;;;;;;4990070;28;20459;-82
2022/08/31 09:45:38;;;;;;;994.17;905.97;;;22.20;99.80;;;;;;4993443;28;20686;-82
2022/08/31 09:48:08;;;;;;;1001.65;913.55;;;22.20;99.60;;;;;;4986203;28;20304;-84
2022/08/31 09:50:43;;;;;;;1005.75;917.78;;;22.20;99.60;;;;;;4989750;28;20297;-83
2022/08/31 09:56:12;;;;;;;1014.28;925.50;;;22.30;99.60;;;;;;4992969;28;20327;-83
2022/08/31 09:58:41;;;;;;;994.20;906.22;;;22.30;99.60;;;;;;4990073;28;20201;-83
2022/08/31 10:01:14;;;;;;;994.85;906.88;;;22.30;99.80;;;;;;4990923;28;20201;-83
2022/08/31 10:03:45;;;;;;;1011.85;923.35;;;22.40;99.80;;;;;;4993425;28;20224;-83
2022/08/31 10:06:40;;;;;;;998.78;910.78;;;22.30;99.80;;;;;;4993533;28;20267;-83
2022/08/31 10:09:14;;;;;;;1009.65;921.45;;;22.30;99.80;;;;;;4991743;28;20209;-83
2022/08/31 10:11:46;;;;;;;1004.15;916.35;;;22.30;99.90;;;;;;4992380;28;20664;-83
2022/08/31 10:14:21;;;;;;;1021.42;932.83;;;22.30;99.90;;;;;;4989287;28;20259;-84
2022/08/31 10:16:53;;;;;;;989.35;901.78;;;22.30;99.90;;;;;;4990203;28;20348;-84
2022/08/31 10:19:33;;;;;;;1004.20;916.25;;;22.30;99.90;;;;;;4992714;28;20197;-82
2022/08/31 10:22:04;;;;;;;1003.97;916.08;;;22.30;99.90;;;;;;4986499;28;20207;-82
2022/08/31 10:24:38;;;;;;;993.58;905.75;;;22.30;99.90;;;;;;4989036;28;20661;-82
2022/08/31 10:27:15;;;;;;;984.65;896.95;;;22.30;99.90;;;;;;4985386;28;20706;-82
2022/08/31 10:29:48;;;;;;;1010.65;922.22;;;22.30;99.90;;;;;;4991970;28;20288;-82
2022/08/31 10:32:29;;;;;;;1000.55;912.60;;;22.20;99.90;;;;;;4991948;28;20221;-83
2022/08/31 10:35:04;;;;;;;989.40;901.95;;;22.20;99.90;;;;;;4990102;28;20212;-84
2022/08/31 10:37:40;;;;;;;990.58;902.90;;;22.20;99.90;;;;;;4992611;28;20279;-82
2022/08/31 10:40:12;;;;;;;1008.15;919.97;;;22.20;99.90;;;;;;4988614;28;20208;-83
2022/08/31 10:42:44;;;;;;;1000.00;912.03;;;22.20;99.90;;;;;;4985570;28;20197;-84
2022/08/31 10:45:16;;;;;;;987.22;899.55;;;22.20;99.90;;;;;;4999927;28;20205;-83
2022/08/31 10:47:48;;;;;;;1001.35;913.25;;;22.20;99.90;;;;;;4985319;28;20216;-81
2022/08/31 10:50:25;;;;;;;983.03;895.63;;;22.20;99.90;;;;;;4991345;28;20256;-83
2022/08/31 10:53:02;;;;;;;1007.20;918.70;;;22.20;99.90;;;;;;4982856;28;20620;-82
2022/08/31 10:55:35;;;;;;;998.22;910.45;;;22.20;99.90;;;;;;4992495;28;20196;-82
2022/08/31 10:58:12;;;;;;;994.42;906.72;;;22.20;99.90;;;;;;4975689;28;20182;-82
2022/08/31 11:00:48;;;;;;;986.80;899.30;;;22.20;99.90;;;;;;4988381;28;20215;-82
2022/08/31 11:03:27;;;;;;;979.33;892.08;;;22.20;99.90;;;;;;4985776;28;20225;-83
2022/08/31 11:06:02;;;;;;;985.80;898.20;;;22.20;99.90;;;;;;4984165;28;20541;-83
2022/08/31 11:08:48;;;;;;;1004.30;916.45;;;22.30;99.90;;;;;;4994968;28;20216;-86
2022/08/31 11:11:24;;;;;;;991.35;904.13;;;22.30;99.90;;;;;;4982221;28;20228;-82
2022/08/31 11:14:06;;;;;;;1000.78;912.63;;;22.30;99.90;;;;;;4989880;28;20205;-82
2022/08/31 11:16:52;;;;;;;1003.03;915.13;;;22.30;99.90;;;;;;4990335;28;20207;-82
2022/08/31 11:20:01;;;;;;;996.70;909.05;;;22.40;99.90;;;;;;4994908;28;20611;-83
2022/08/31 11:23:06;;;;;;;1005.38;917.53;;;22.40;99.90;;;;;;4949526;28;20207;-83
2022/08/31 11:26:15;;;;;;;999.13;911.15;;;22.40;99.90;;;;;;5003567;28;20200;-81
2022/08/31 11:28:47;;;;;;;990.25;902.88;;;22.40;99.90;;;;;;4964996;28;20231;-82
2022/08/31 11:31:22;;;;;;;1002.05;914.38;;;22.40;99.90;;;;;;4989471;28;20215;-82
2022/08/31 11:33:52;;;;;;;993.28;905.92;;;22.40;99.90;;;;;;4999836;28;20196;-80
2022/08/31 11:36:48;;;;;;;989.20;901.67;;;22.40;99.90;;;;;;4992107;28;20962;-82
2022/08/31 11:39:39;;;;;;;982.42;895.38;;;22.40;99.90;;;;;;4978391;28;20217;-81
2022/08/31 11:42:11;;;;;;;994.90;907.33;;;22.40;99.90;;;;;;4989945;28;20739;-81
2022/08/31 11:45:00;;;;;;;989.33;901.85;;;22.40;99.90;;;;;;4987996;28;20254;-81
2022/08/31 11:47:40;;;;;;;996.55;908.78;;;22.40;99.90;;;;;;4994735;28;20448;-81
2022/08/31 11:50:55;;;;;;;997.00;909.45;;;22.40;99.90;;;;;;4990060;28;20197;-82
2022/08/31 11:53:30;;;;;;;984.70;897.38;;;22.40;99.90;;;;;;4990628;28;20192;-83
2022/08/31 11:56:00;;;;;;;1006.80;918.50;;;22.40;99.90;;;;;;4990714;28;20620;-81
2022/08/31 11:58:33;;;;;;;984.75;897.42;;;22.40;99.90;;;;;;4992604;28;20567;-81
2022/08/31 12:01:24;;;;;;;1003.25;915.40;;;22.40;99.90;;;;;;5001065;28;20639;-82
2022/08/31 12:03:55;;;;;;;986.67;899.47;;;22.40;99.70;;;;;;4992893;28;20228;-82
2022/08/31 12:07:07;;;;;;;994.85;907.28;;;22.40;99.60;;;;;;4992449;28;20263;-81
2022/08/31 12:10:22;;;;;;;993.35;905.75;;;22.40;99.60;;;;;;4989324;28;20541;-80
2022/08/31 12:13:17;;;;;;;997.90;910.35;;;22.40;99.60;;;;;;4954781;28;20201;-82
2022/08/31 12:16:19;;;;;;;991.20;903.85;;;22.40;99.50;;;;;;4991410;28;20215;-82
2022/08/31 12:19:06;;;;;;;991.17;903.95;;;22.40;99.50;;;;;;4994661;28;20196;-82
2022/08/31 12:24:38;;;;;;;989.92;902.58;;;22.40;98.90;;;;;;4991960;28;20204;-83
2022/08/31 12:27:18;;;;;;;998.83;911.70;;;22.50;98.90;;;;;;4987709;28;20222;-81
2022/08/31 12:29:46;;;;;;;1003.60;916.28;;;22.50;98.60;;;;;;4993611;28;20209;-82
2022/08/31 12:32:28;;;;;;;1000.45;913.03;;;22.60;98.00;;;;;;4991142;28;20219;-81
2022/08/31 12:35:11;;;;;;;1011.92;923.65;;;22.70;95.90;;;;;;5004010;28;20204;-82
2022/08/31 12:37:39;;;;;;;1022.78;933.70;;;22.80;95.80;;;;;;4989962;28;20205;-81
2022/08/31 12:40:14;;;;;;;1030.80;941.53;;;22.80;95.90;;;;;;4985817;28;20197;-83
2022/08/31 12:42:52;;;;;;;1035.65;946.28;;;22.80;96.30;;;;;;4991288;28;20211;-83